createdAt,value
2018-08-24T00:02:21.956Z,27.15
2018-08-24T00:04:48.329Z,27.14
2018-08-24T00:07:14.671Z,27.11
2018-08-24T00:09:40.966Z,27.10
2018-08-24T00:12:07.287Z,27.09
2018-08-24T00:14:33.650Z,27.05
2018-08-24T00:17:00.021Z,27.03
2018-08-24T00:19:26.348Z,27.02
2018-08-24T00:21:52.699Z,27.01
2018-08-24T00:24:19.000Z,26.99
2018-08-24T00:26:45.325Z,26.98
2018-08-24T00:29:11.640Z,26.96
2018-08-24T00:31:38.008Z,26.95
2018-08-24T00:34:04.287Z,26.92
2018-08-24T00:36:30.613Z,26.93
2018-08-24T00:38:56.925Z,26.91
2018-08-24T00:41:23.270Z,26.89
2018-08-24T00:43:49.581Z,26.87
2018-08-24T00:46:15.904Z,26.84
2018-08-24T00:48:42.249Z,26.84
2018-08-24T00:51:08.595Z,26.84
2018-08-24T00:53:34.908Z,26.82
2018-08-24T00:56:01.230Z,26.82
2018-08-24T00:58:27.601Z,26.78
2018-08-24T01:00:53.898Z,26.74
2018-08-24T01:03:20.224Z,26.73
2018-08-24T01:05:46.552Z,26.72
2018-08-24T01:08:12.864Z,26.65
2018-08-24T01:10:39.180Z,26.63
2018-08-24T01:13:05.511Z,26.63
2018-08-24T01:15:31.827Z,26.62
2018-08-24T01:17:58.141Z,26.60
2018-08-24T01:20:24.464Z,26.60
2018-08-24T01:22:50.795Z,26.60
2018-08-24T01:25:17.105Z,26.55
2018-08-24T01:27:43.434Z,26.58
2018-08-24T01:30:09.758Z,26.57
2018-08-24T01:32:36.085Z,26.54
2018-08-24T01:35:02.434Z,26.51
2018-08-24T01:37:28.726Z,26.51
2018-08-24T01:39:55.074Z,26.51
2018-08-24T01:42:21.395Z,26.50
2018-08-24T01:44:47.797Z,26.47
2018-08-24T01:47:14.033Z,26.47
2018-08-24T01:49:40.374Z,26.46
2018-08-24T01:52:06.688Z,26.44
2018-08-24T01:54:32.996Z,26.43
2018-08-24T01:56:59.320Z,26.42
2018-08-24T01:59:25.641Z,26.38
2018-08-24T02:01:51.958Z,26.39
2018-08-24T02:04:18.289Z,26.37
2018-08-24T02:06:44.616Z,26.36
2018-08-24T02:09:10.940Z,26.33
2018-08-24T02:11:37.281Z,26.32
2018-08-24T02:14:03.849Z,26.31
2018-08-24T02:16:30.170Z,26.30
2018-08-24T02:18:56.789Z,26.28
2018-08-24T02:21:33.947Z,26.26
2018-08-24T02:23:50.395Z,26.24
2018-08-24T02:26:17.467Z,26.23
2018-08-24T02:28:44.026Z,26.22
2018-08-24T02:31:11.082Z,26.20
2018-08-24T02:33:38.921Z,26.17
2018-08-24T02:36:05.868Z,26.06
2018-08-24T02:38:32.111Z,26.07
2018-08-24T02:40:58.424Z,26.06
2018-08-24T02:43:24.738Z,26.02
2018-08-24T02:45:51.105Z,26.00
2018-08-24T02:48:17.424Z,25.99
2018-08-24T02:50:43.740Z,25.99
2018-08-24T02:53:10.064Z,25.97
2018-08-24T02:55:36.382Z,25.95
2018-08-24T02:58:02.735Z,25.95
2018-08-24T03:00:29.027Z,25.93
2018-08-24T03:02:55.393Z,25.91
2018-08-24T03:05:21.852Z,25.91
2018-08-24T03:07:48.056Z,25.88
2018-08-24T03:10:14.365Z,25.86
2018-08-24T03:12:40.747Z,25.83
2018-08-24T03:15:07.057Z,25.82
2018-08-24T03:17:33.387Z,25.79
2018-08-24T03:19:59.706Z,25.77
2018-08-24T03:22:26.040Z,25.75
2018-08-24T03:24:52.365Z,25.74
2018-08-24T03:27:18.685Z,25.72
2018-08-24T03:29:45.003Z,25.70
2018-08-24T03:32:11.336Z,25.67
2018-08-24T03:34:37.668Z,25.64
2018-08-24T03:37:04.027Z,25.63
2018-08-24T03:39:30.372Z,25.60
2018-08-24T03:41:56.684Z,25.60
2018-08-24T03:44:23.008Z,25.58
2018-08-24T03:46:49.325Z,25.55
2018-08-24T03:49:15.653Z,25.53
2018-08-24T03:51:41.974Z,25.50
2018-08-24T03:54:08.304Z,25.51
2018-08-24T03:56:34.616Z,25.49
2018-08-24T03:59:00.975Z,25.48
2018-08-24T04:01:27.283Z,25.46
2018-08-24T04:03:53.605Z,25.46
2018-08-24T04:06:19.924Z,25.45
2018-08-24T04:08:46.285Z,25.43
2018-08-24T04:11:12.604Z,25.37
2018-08-24T04:13:38.916Z,25.43
2018-08-24T04:16:05.245Z,25.42
2018-08-24T04:18:31.564Z,25.41
2018-08-24T04:20:57.898Z,25.40
2018-08-24T04:23:24.253Z,25.41
2018-08-24T04:25:50.655Z,25.41
2018-08-24T04:28:16.947Z,25.41
2018-08-24T04:30:43.308Z,25.42
2018-08-24T04:33:09.619Z,25.43
2018-08-24T04:35:35.976Z,25.44
2018-08-24T04:38:02.305Z,25.45
2018-08-24T04:40:28.713Z,25.45
2018-08-24T04:42:54.935Z,25.46
2018-08-24T04:45:21.298Z,25.46
2018-08-24T04:47:47.637Z,25.49
2018-08-24T04:50:13.953Z,25.53
2018-08-24T04:52:40.313Z,25.56
2018-08-24T04:55:06.633Z,25.61
2018-08-24T04:57:32.981Z,25.67
2018-08-24T04:59:59.292Z,25.70
2018-08-24T05:02:25.608Z,25.72
2018-08-24T05:04:51.972Z,25.72
2018-08-24T05:07:18.297Z,25.76
2018-08-24T05:09:44.623Z,25.82
2018-08-24T05:12:10.936Z,25.89
2018-08-24T05:14:37.245Z,25.94
2018-08-24T05:17:03.561Z,25.99
2018-08-24T05:19:29.880Z,26.04
2018-08-24T05:21:56.200Z,26.09
2018-08-24T05:24:22.513Z,26.15
2018-08-24T05:26:48.831Z,26.24
2018-08-24T05:29:15.148Z,26.31
2018-08-24T05:31:41.461Z,26.36
2018-08-24T05:34:07.780Z,26.42
2018-08-24T05:36:34.098Z,26.48
2018-08-24T05:39:00.422Z,26.56
2018-08-24T05:41:26.760Z,26.65
2018-08-24T05:43:53.063Z,26.73
2018-08-24T05:46:19.397Z,26.80
2018-08-24T05:48:45.745Z,26.89
2018-08-24T05:51:12.043Z,26.97
2018-08-24T05:53:38.366Z,27.07
2018-08-24T05:56:04.689Z,27.17
2018-08-24T05:58:31.001Z,27.26
2018-08-24T06:00:57.353Z,27.33
2018-08-24T06:03:23.635Z,27.45
2018-08-24T06:05:50.057Z,27.53
2018-08-24T06:08:16.315Z,27.60
2018-08-24T06:10:42.667Z,27.66
2018-08-24T06:13:08.973Z,27.71
2018-08-24T06:15:35.330Z,27.79
2018-08-24T06:18:01.656Z,27.86
2018-08-24T06:20:27.960Z,27.95
2018-08-24T06:22:54.278Z,28.06
2018-08-24T06:25:20.635Z,28.16
2018-08-24T06:27:46.961Z,28.25
2018-08-24T06:30:13.321Z,28.30
2018-08-24T06:32:39.680Z,28.33
2018-08-24T06:35:05.972Z,28.37
2018-08-24T06:37:32.298Z,28.43
2018-08-24T06:39:58.644Z,28.52
2018-08-24T06:42:24.959Z,28.65
2018-08-24T06:44:51.286Z,28.79
2018-08-24T06:47:17.647Z,28.92
2018-08-24T06:49:43.976Z,29.00
2018-08-24T06:52:10.305Z,29.07
2018-08-24T06:54:36.651Z,29.11
2018-08-24T06:57:02.966Z,29.18
2018-08-24T06:59:29.303Z,29.28
2018-08-24T07:01:55.668Z,29.34
2018-08-24T07:04:22.068Z,29.44
2018-08-24T07:06:48.384Z,29.51
2018-08-24T07:09:14.725Z,29.63
2018-08-24T07:11:41.078Z,29.77
2018-08-24T07:14:07.399Z,29.92
2018-08-24T07:16:33.731Z,30.08
2018-08-24T07:19:00.222Z,30.21
2018-08-24T07:21:26.531Z,30.36
2018-08-24T07:23:52.862Z,30.50
2018-08-24T07:26:19.190Z,30.58
2018-08-24T07:28:45.516Z,30.65
2018-08-24T07:31:11.854Z,30.75
2018-08-24T07:33:38.164Z,30.86
2018-08-24T07:36:04.484Z,30.99
2018-08-24T07:38:30.808Z,31.10
2018-08-24T07:40:57.159Z,31.15
2018-08-24T07:43:23.472Z,31.21
2018-08-24T07:45:49.811Z,31.32
2018-08-24T07:48:16.168Z,31.43
2018-08-24T07:50:42.513Z,31.57
2018-08-24T07:53:08.778Z,31.71
2018-08-24T07:55:35.112Z,31.84
2018-08-24T07:58:01.441Z,31.97
2018-08-24T08:00:27.769Z,32.08
2018-08-24T08:02:54.094Z,32.18
2018-08-24T08:05:20.504Z,32.27
2018-08-24T08:07:46.765Z,32.36
2018-08-24T08:10:13.127Z,32.39
2018-08-24T08:12:39.492Z,32.41
2018-08-24T08:15:05.764Z,32.49
2018-08-24T08:17:32.122Z,32.57
2018-08-24T08:19:58.455Z,32.67
2018-08-24T08:22:24.790Z,32.77
2018-08-24T08:24:51.221Z,32.88
2018-08-24T08:27:17.502Z,33.01
2018-08-24T08:29:43.813Z,33.11
2018-08-24T08:32:10.147Z,33.19
2018-08-24T08:34:36.467Z,33.28
2018-08-24T08:37:02.794Z,33.36
2018-08-24T08:39:29.168Z,33.39
2018-08-24T08:41:55.510Z,33.42
2018-08-24T08:44:21.819Z,33.47
2018-08-24T08:46:48.133Z,33.52
2018-08-24T08:49:14.446Z,33.63
2018-08-24T08:51:40.789Z,33.73
2018-08-24T08:54:07.111Z,33.80
2018-08-24T08:56:33.424Z,33.87
2018-08-24T08:58:59.793Z,33.97
2018-08-24T09:01:26.121Z,34.05
2018-08-24T09:03:52.484Z,34.14
2018-08-24T09:06:18.813Z,34.21
2018-08-24T09:08:45.107Z,34.30
2018-08-24T09:11:11.437Z,34.39
2018-08-24T09:13:37.803Z,34.48
2018-08-24T09:16:04.164Z,34.55
2018-08-24T09:18:30.565Z,34.59
2018-08-24T09:20:56.859Z,34.63
2018-08-24T09:23:23.241Z,34.66
2018-08-24T09:25:49.682Z,34.67
2018-08-24T09:28:15.909Z,34.66
2018-08-24T09:30:42.235Z,34.69
2018-08-24T09:33:08.564Z,34.72
2018-08-24T09:35:34.881Z,34.77
2018-08-24T09:38:01.251Z,34.81
2018-08-24T09:40:27.568Z,34.93
2018-08-24T09:42:53.899Z,35.00
2018-08-24T09:45:20.260Z,35.06
2018-08-24T09:47:46.618Z,35.13
2018-08-24T09:50:12.907Z,35.21
2018-08-24T09:52:39.218Z,35.25
2018-08-24T09:55:05.580Z,35.28
2018-08-24T09:57:31.898Z,35.30
2018-08-24T10:00:00.726Z,35.33
2018-08-24T10:02:24.644Z,35.37
2018-08-24T10:04:50.987Z,35.40
2018-08-24T10:07:17.374Z,35.41
2018-08-24T10:09:43.702Z,35.42
2018-08-24T10:12:10.032Z,35.44
2018-08-24T10:14:36.360Z,35.45
2018-08-24T10:17:02.714Z,35.50
2018-08-24T10:19:29.022Z,35.51
2018-08-24T10:21:55.337Z,35.54
2018-08-24T10:24:21.659Z,35.55
2018-08-24T10:26:47.992Z,35.48
2018-08-24T10:29:14.318Z,35.42
2018-08-24T10:31:40.648Z,35.38
2018-08-24T10:34:06.976Z,35.29
2018-08-24T10:36:33.289Z,35.23
2018-08-24T10:38:59.750Z,35.14
2018-08-24T10:41:25.962Z,35.08
2018-08-24T10:43:52.315Z,35.02
2018-08-24T10:46:18.631Z,34.96
2018-08-24T10:48:44.963Z,34.90
2018-08-24T10:51:11.297Z,34.82
2018-08-24T10:53:37.613Z,34.76
2018-08-24T10:56:03.968Z,34.71
2018-08-24T10:58:30.287Z,34.68
2018-08-24T11:00:56.649Z,34.67
2018-08-24T11:03:22.971Z,34.72
2018-08-24T11:05:49.282Z,34.77
2018-08-24T11:08:15.613Z,34.81
2018-08-24T11:10:41.934Z,34.86
2018-08-24T11:13:08.264Z,34.91
2018-08-24T11:15:34.583Z,35.00
2018-08-24T11:18:00.944Z,35.09
2018-08-24T11:20:27.286Z,35.18
2018-08-24T11:22:53.608Z,35.25
2018-08-24T11:25:19.970Z,35.32
2018-08-24T11:27:46.344Z,35.38
2018-08-24T11:30:12.728Z,35.43
2018-08-24T11:32:39.100Z,35.48
2018-08-24T11:35:05.412Z,35.52
2018-08-24T11:37:31.756Z,35.56
2018-08-24T11:39:58.163Z,35.57
2018-08-24T11:42:24.475Z,35.60
2018-08-24T11:44:50.811Z,35.61
2018-08-24T11:47:17.146Z,35.61
2018-08-24T11:49:43.484Z,35.64
2018-08-24T11:52:09.856Z,35.64
2018-08-24T11:54:36.381Z,35.65
2018-08-24T11:57:02.562Z,35.63
2018-08-24T11:59:28.905Z,35.66
2018-08-24T12:01:55.331Z,35.64
2018-08-24T12:04:21.633Z,35.64
2018-08-24T12:06:48.008Z,35.64
2018-08-24T12:09:14.335Z,35.64
2018-08-24T12:11:40.660Z,35.63
2018-08-24T12:14:07.046Z,35.63
2018-08-24T12:16:33.317Z,35.61
2018-08-24T12:18:59.684Z,35.59
2018-08-24T12:21:26.012Z,35.57
2018-08-24T12:23:52.350Z,35.54
2018-08-24T12:26:18.673Z,35.54
2018-08-24T12:28:44.995Z,35.51
2018-08-24T12:31:11.302Z,35.48
2018-08-24T12:33:37.618Z,35.46
2018-08-24T12:36:03.950Z,35.48
2018-08-24T12:38:30.278Z,35.46
2018-08-24T12:40:56.609Z,35.44
2018-08-24T12:43:22.934Z,35.38
2018-08-24T12:45:49.240Z,35.36
2018-08-24T12:48:15.558Z,35.32
2018-08-24T12:50:41.868Z,35.29
2018-08-24T12:53:08.198Z,35.29
2018-08-24T12:55:34.531Z,35.24
2018-08-24T12:58:00.844Z,35.20
2018-08-24T13:00:27.167Z,35.17
2018-08-24T13:02:53.492Z,35.17
2018-08-24T13:05:19.806Z,35.15
2018-08-24T13:07:46.139Z,35.14
2018-08-24T13:10:12.448Z,35.13
2018-08-24T13:12:38.821Z,35.12
2018-08-24T13:15:05.201Z,35.10
2018-08-24T13:17:31.482Z,35.07
2018-08-24T13:19:57.797Z,35.03
2018-08-24T13:22:24.118Z,35.01
2018-08-24T13:24:50.507Z,34.99
2018-08-24T13:27:16.883Z,34.99
2018-08-24T13:29:43.168Z,34.98
2018-08-24T13:32:09.499Z,34.96
2018-08-24T13:34:35.832Z,34.94
2018-08-24T13:37:02.211Z,34.91
2018-08-24T13:39:28.529Z,34.88
2018-08-24T13:41:54.833Z,34.85
2018-08-24T13:44:21.157Z,34.80
2018-08-24T13:46:47.469Z,34.76
2018-08-24T13:49:13.821Z,34.72
2018-08-24T13:51:40.174Z,34.68
2018-08-24T13:54:06.488Z,34.63
2018-08-24T13:56:32.815Z,34.61
2018-08-24T13:58:59.124Z,34.58
2018-08-24T14:01:25.439Z,34.53
2018-08-24T14:03:51.806Z,34.52
2018-08-24T14:06:18.125Z,34.50
2018-08-24T14:08:44.440Z,34.46
2018-08-24T14:11:10.752Z,34.43
2018-08-24T14:13:37.175Z,34.38
2018-08-24T14:16:03.439Z,34.34
2018-08-24T14:18:29.755Z,34.29
2018-08-24T14:20:56.244Z,34.27
2018-08-24T14:23:22.402Z,34.23
2018-08-24T14:25:48.732Z,34.17
2018-08-24T14:28:15.041Z,34.16
2018-08-24T14:30:41.362Z,34.14
2018-08-24T14:33:07.676Z,34.10
2018-08-24T14:35:34.008Z,34.07
2018-08-24T14:38:00.361Z,34.05
2018-08-24T14:40:26.693Z,34.02
2018-08-24T14:42:53.006Z,33.99
2018-08-24T14:45:19.338Z,33.96
2018-08-24T14:47:45.668Z,33.94
2018-08-24T14:50:11.999Z,33.92
2018-08-24T14:52:38.402Z,33.90
2018-08-24T14:55:04.743Z,33.87
2018-08-24T14:57:31.076Z,33.84
2018-08-24T14:59:57.372Z,33.83
2018-08-24T15:02:23.717Z,33.81
2018-08-24T15:04:49.999Z,33.80
2018-08-24T15:07:16.313Z,33.78
2018-08-24T15:09:42.630Z,33.75
2018-08-24T15:12:08.945Z,33.73
2018-08-24T15:14:35.259Z,33.68
2018-08-24T15:17:01.624Z,33.65
2018-08-24T15:19:27.886Z,33.63
2018-08-24T15:21:54.234Z,33.60
2018-08-24T15:24:20.518Z,33.58
2018-08-24T15:26:46.832Z,33.56
2018-08-24T15:29:13.153Z,33.50
2018-08-24T15:31:39.505Z,33.47
2018-08-24T15:34:05.822Z,33.44
2018-08-24T15:36:32.195Z,33.42
2018-08-24T15:38:58.516Z,33.39
2018-08-24T15:41:24.835Z,33.36
2018-08-24T15:43:51.148Z,33.32
2018-08-24T15:46:17.496Z,33.30
2018-08-24T15:48:43.775Z,33.25
2018-08-24T15:51:10.090Z,33.20
2018-08-24T15:53:36.401Z,33.16
2018-08-24T15:56:02.714Z,33.12
2018-08-24T15:58:29.026Z,33.08
2018-08-24T16:00:55.341Z,33.07
2018-08-24T16:03:21.648Z,33.04
2018-08-24T16:05:48.003Z,33.01
2018-08-24T16:08:14.330Z,32.96
2018-08-24T16:10:40.684Z,32.91
2018-08-24T16:13:07.058Z,32.85
2018-08-24T16:15:33.369Z,32.80
2018-08-24T16:17:59.704Z,32.78
2018-08-24T16:20:25.997Z,32.75
2018-08-24T16:22:52.304Z,32.71
2018-08-24T16:25:18.769Z,32.65
2018-08-24T16:27:45.091Z,32.62
2018-08-24T16:30:11.411Z,32.62
2018-08-24T16:32:37.747Z,32.56
2018-08-24T16:35:04.041Z,32.53
2018-08-24T16:37:30.356Z,32.50
2018-08-24T16:39:56.669Z,32.47
2018-08-24T16:42:22.980Z,32.46
2018-08-24T16:44:49.299Z,32.42
2018-08-24T16:47:15.612Z,32.38
2018-08-24T16:49:41.942Z,32.35
2018-08-24T16:52:08.264Z,32.32
2018-08-24T16:54:34.583Z,32.28
2018-08-24T16:57:00.937Z,32.23
2018-08-24T16:59:27.264Z,32.20
2018-08-24T17:01:53.581Z,32.16
2018-08-24T17:04:19.889Z,32.12
2018-08-24T17:06:46.200Z,32.08
2018-08-24T17:09:12.512Z,32.05
2018-08-24T17:11:38.825Z,32.01
2018-08-24T17:14:05.146Z,31.98
2018-08-24T17:16:31.465Z,31.95
2018-08-24T17:18:57.776Z,31.88
2018-08-24T17:21:24.089Z,31.87
2018-08-24T17:23:50.421Z,31.82
2018-08-24T17:26:16.751Z,31.77
2018-08-24T17:28:43.088Z,31.73
2018-08-24T17:31:09.382Z,31.68
2018-08-24T17:33:35.713Z,31.66
2018-08-24T17:36:02.024Z,31.64
2018-08-24T17:38:28.356Z,31.60
2018-08-24T17:40:54.670Z,31.56
2018-08-24T17:43:20.997Z,31.50
2018-08-24T17:45:47.332Z,31.45
2018-08-24T17:48:13.664Z,31.42
2018-08-24T17:50:40.029Z,31.40
2018-08-24T17:53:06.356Z,31.36
2018-08-24T17:55:32.684Z,31.33
2018-08-24T17:57:59.036Z,31.32
2018-08-24T18:00:25.325Z,31.29
2018-08-24T18:02:51.639Z,31.26
2018-08-24T18:05:17.952Z,31.24
2018-08-24T18:07:44.284Z,31.20
2018-08-24T18:10:10.615Z,31.19
2018-08-24T18:12:36.996Z,31.16
2018-08-24T18:15:03.497Z,31.13
2018-08-24T18:17:29.652Z,31.09
2018-08-24T18:19:55.970Z,31.04
2018-08-24T18:22:22.282Z,31.01
2018-08-24T18:24:48.595Z,30.98
2018-08-24T18:27:14.907Z,30.94
2018-08-24T18:29:41.224Z,30.93
2018-08-24T18:32:07.534Z,30.90
2018-08-24T18:34:33.851Z,30.86
2018-08-24T18:37:00.169Z,30.84
2018-08-24T18:39:26.505Z,30.75
2018-08-24T18:41:52.821Z,30.78
2018-08-24T18:44:19.147Z,30.74
2018-08-24T18:46:45.464Z,30.72
2018-08-24T18:49:11.786Z,30.68
2018-08-24T18:51:38.113Z,30.67
2018-08-24T18:54:04.427Z,30.62
2018-08-24T18:56:30.773Z,30.58
2018-08-24T18:58:57.085Z,30.54
2018-08-24T19:01:23.380Z,30.53
2018-08-24T19:03:49.708Z,30.50
2018-08-24T19:06:16.037Z,30.47
2018-08-24T19:08:42.367Z,30.43
2018-08-24T19:11:08.680Z,30.38
2018-08-24T19:13:34.992Z,30.35
2018-08-24T19:16:01.300Z,30.31
2018-08-24T19:18:27.612Z,30.28
2018-08-24T19:20:53.925Z,30.22
2018-08-24T19:23:20.257Z,30.19
2018-08-24T19:25:46.579Z,30.17
2018-08-24T19:28:12.907Z,30.15
2018-08-24T19:30:39.223Z,30.12
2018-08-24T19:33:05.548Z,30.09
2018-08-24T19:35:31.861Z,30.05
2018-08-24T19:37:58.188Z,30.00
2018-08-24T19:40:24.501Z,29.95
2018-08-24T19:42:50.821Z,29.94
2018-08-24T19:45:17.148Z,29.91
2018-08-24T19:47:43.474Z,29.88
2018-08-24T19:50:09.804Z,29.88
2018-08-24T19:52:36.124Z,29.85
2018-08-24T19:55:02.509Z,29.79
2018-08-24T19:57:28.775Z,29.39
2018-08-24T19:59:55.094Z,28.93
2018-08-24T20:02:21.404Z,28.61
2018-08-24T20:04:47.778Z,28.44
2018-08-24T20:07:14.094Z,28.31
2018-08-24T20:09:40.415Z,28.23
2018-08-24T20:12:06.729Z,28.16
2018-08-24T20:14:33.054Z,28.18
2018-08-24T20:16:59.390Z,28.17
2018-08-24T20:19:25.698Z,28.19
2018-08-24T20:21:52.033Z,28.24
2018-08-24T20:24:18.464Z,28.31
2018-08-24T20:26:44.709Z,28.32
2018-08-24T20:29:11.017Z,28.35
2018-08-24T20:31:37.354Z,28.34
2018-08-24T20:34:03.683Z,28.35
2018-08-24T20:36:30.007Z,28.32
2018-08-24T20:38:56.355Z,28.34
2018-08-24T20:41:22.646Z,28.38
2018-08-24T20:43:48.982Z,28.38
2018-08-24T20:46:15.322Z,28.39
2018-08-24T20:48:41.637Z,28.40
2018-08-24T20:51:07.958Z,28.38
2018-08-24T20:53:34.264Z,28.39
2018-08-24T20:56:00.592Z,28.40
2018-08-24T20:58:26.926Z,28.41
2018-08-24T21:00:53.256Z,28.39
2018-08-24T21:03:19.583Z,28.37
2018-08-24T21:05:45.908Z,28.39
2018-08-24T21:08:12.236Z,28.40
2018-08-24T21:10:38.563Z,28.38
2018-08-24T21:13:04.878Z,28.36
2018-08-24T21:15:31.189Z,28.35
2018-08-24T21:17:57.526Z,28.33
2018-08-24T21:20:23.864Z,28.33
2018-08-24T21:22:50.191Z,28.31
2018-08-24T21:25:16.500Z,28.32
2018-08-24T21:27:42.814Z,28.32
2018-08-24T21:30:09.166Z,28.33
2018-08-24T21:32:35.443Z,28.32
2018-08-24T21:35:01.811Z,28.31
2018-08-24T21:37:28.140Z,28.29
2018-08-24T21:39:54.454Z,28.25
2018-08-24T21:42:20.770Z,28.22
2018-08-24T21:44:47.081Z,28.19
2018-08-24T21:47:13.393Z,28.18
2018-08-24T21:49:39.714Z,28.17
2018-08-24T21:52:06.031Z,28.14
2018-08-24T21:54:32.346Z,28.12
2018-08-24T21:56:58.689Z,28.10
2018-08-24T21:59:25.007Z,28.09
2018-08-24T22:01:51.326Z,28.05
2018-08-24T22:04:17.647Z,28.01
2018-08-24T22:06:43.965Z,27.99
2018-08-24T22:09:10.276Z,27.97
2018-08-24T22:11:36.604Z,27.94
2018-08-24T22:14:02.910Z,27.90
2018-08-24T22:16:29.259Z,27.88
2018-08-24T22:18:55.575Z,27.85
2018-08-24T22:21:21.890Z,27.84
2018-08-24T22:23:48.205Z,27.83
2018-08-24T22:26:14.513Z,27.83
2018-08-24T22:28:40.824Z,27.79
2018-08-24T22:31:07.156Z,27.76
2018-08-24T22:33:33.478Z,27.72
2018-08-24T22:35:59.809Z,27.70
2018-08-24T22:38:26.135Z,27.68
2018-08-24T22:40:52.474Z,27.64
2018-08-24T22:43:18.792Z,27.62
2018-08-24T22:45:45.125Z,27.59
2018-08-24T22:48:11.448Z,27.58
2018-08-24T22:50:37.776Z,27.56
2018-08-24T22:53:04.104Z,27.52
2018-08-24T22:55:30.440Z,27.50
2018-08-24T22:57:56.774Z,27.46
2018-08-24T23:00:23.176Z,27.43
2018-08-24T23:02:49.452Z,27.40
2018-08-24T23:05:15.820Z,27.38
2018-08-24T23:07:42.141Z,27.37
2018-08-24T23:10:08.503Z,27.33
2018-08-24T23:12:36.994Z,27.31
2018-08-24T23:15:03.363Z,27.30
2018-08-24T23:17:29.698Z,27.28
2018-08-24T23:19:56.022Z,27.24
2018-08-24T23:22:22.340Z,27.22
2018-08-24T23:24:48.677Z,27.18
2018-08-24T23:27:15.005Z,27.17
2018-08-24T23:29:41.321Z,27.15
2018-08-24T23:32:07.696Z,27.11
2018-08-24T23:34:33.977Z,27.08
2018-08-24T23:37:00.299Z,27.05
2018-08-24T23:39:26.681Z,27.03
2018-08-24T23:41:53.003Z,27.01
2018-08-24T23:44:19.335Z,26.97
2018-08-24T23:46:45.661Z,26.97
2018-08-24T23:49:11.982Z,26.94
2018-08-24T23:51:38.304Z,26.91
2018-08-24T23:54:04.629Z,26.90
2018-08-24T23:56:30.959Z,26.89
2018-08-24T23:58:57.325Z,26.87
